createdAt,value
2018-06-05T00:00:40.167Z,91.80
2018-06-05T00:01:40.401Z,91.80
2018-06-05T00:02:40.628Z,91.99
2018-06-05T00:03:40.861Z,92.43
2018-06-05T00:04:41.095Z,92.57
2018-06-05T00:05:41.329Z,93.39
2018-06-05T00:06:41.560Z,93.29
2018-06-05T00:07:41.796Z,93.10
2018-06-05T00:08:42.023Z,92.33
2018-06-05T00:09:42.257Z,92.24
2018-06-05T00:10:42.488Z,92.43
2018-06-05T00:11:42.720Z,92.52
2018-06-05T00:12:42.953Z,92.91
2018-06-05T00:13:43.188Z,93.19
2018-06-05T00:14:43.419Z,93.19
2018-06-05T00:15:43.654Z,93.39
2018-06-05T00:16:43.886Z,93.01
2018-06-05T00:17:44.118Z,93.29
2018-06-05T00:18:44.350Z,93.39
2018-06-05T00:19:44.582Z,93.19
2018-06-05T00:20:44.813Z,93.10
2018-06-05T00:21:45.036Z,93.39
2018-06-05T00:22:45.285Z,93.10
2018-06-05T00:23:45.520Z,93.49
2018-06-05T00:24:45.751Z,93.19
2018-06-05T00:25:45.988Z,93.68
2018-06-05T00:26:46.221Z,93.68
2018-06-05T00:27:46.458Z,93.96
2018-06-05T00:28:46.683Z,94.40
2018-06-05T00:29:46.917Z,94.16
2018-06-05T00:30:47.147Z,93.49
2018-06-05T00:31:47.377Z,93.49
2018-06-05T00:32:47.607Z,93.63
2018-06-05T00:33:47.842Z,93.54
2018-06-05T00:34:48.076Z,94.45
2018-06-05T00:35:48.304Z,93.73
2018-06-05T00:36:48.539Z,94.35
2018-06-05T00:37:48.770Z,93.92
2018-06-05T00:38:49.000Z,93.92
2018-06-05T00:39:49.233Z,93.92
2018-06-05T00:40:49.465Z,94.69
2018-06-05T00:41:49.697Z,94.88
2018-06-05T00:42:49.929Z,94.88
2018-06-05T00:43:50.160Z,93.82
2018-06-05T00:44:50.393Z,94.31
2018-06-05T00:45:50.631Z,94.78
2018-06-05T00:46:50.860Z,94.49
2018-06-05T00:47:51.092Z,94.98
2018-06-05T00:48:51.329Z,94.59
2018-06-05T00:49:51.567Z,94.98
2018-06-05T00:50:51.793Z,95.26
2018-06-05T00:51:52.030Z,94.88
2018-06-05T00:52:52.263Z,95.36
2018-06-05T00:53:52.493Z,95.26
2018-06-05T00:54:52.726Z,95.65
2018-06-05T00:55:52.952Z,95.12
2018-06-05T00:56:53.188Z,95.75
2018-06-05T00:57:53.419Z,95.84
2018-06-05T00:58:53.650Z,95.55
2018-06-05T00:59:53.885Z,95.36
2018-06-05T01:00:54.112Z,96.08
2018-06-05T01:01:54.346Z,96.18
2018-06-05T01:02:54.578Z,96.56
2018-06-05T01:03:54.810Z,96.27
2018-06-05T01:04:55.044Z,96.37
2018-06-05T01:05:55.275Z,96.56
2018-06-05T01:06:55.503Z,96.94
2018-06-05T01:07:55.737Z,96.85
2018-06-05T01:08:55.969Z,96.56
2018-06-05T01:09:56.201Z,96.18
2018-06-05T01:10:56.433Z,96.75
2018-06-05T01:11:56.664Z,96.75
2018-06-05T01:12:56.896Z,97.42
2018-06-05T01:13:57.127Z,97.04
2018-06-05T01:14:57.361Z,97.52
2018-06-05T01:15:57.589Z,97.52
2018-06-05T01:16:57.823Z,97.42
2018-06-05T01:17:58.054Z,96.66
2018-06-05T01:18:58.286Z,96.56
2018-06-05T01:19:58.536Z,97.42
2018-06-05T01:20:58.766Z,97.52
2018-06-05T01:21:58.997Z,97.14
2018-06-05T01:22:59.229Z,96.75
2018-06-05T01:23:59.465Z,96.37
2018-06-05T01:24:59.693Z,96.75
2018-06-05T01:25:59.926Z,96.94
2018-06-05T01:27:00.154Z,96.94
2018-06-05T01:28:00.388Z,96.94
2018-06-05T01:29:00.625Z,96.94
2018-06-05T01:30:00.851Z,97.24
2018-06-05T01:31:01.088Z,97.42
2018-06-05T01:32:01.317Z,97.42
2018-06-05T01:33:01.553Z,97.66
2018-06-05T01:34:01.785Z,97.19
2018-06-05T01:35:02.011Z,97.66
2018-06-05T01:36:02.246Z,97.66
2018-06-05T01:37:02.479Z,97.95
2018-06-05T01:38:02.711Z,98.14
2018-06-05T01:39:02.942Z,98.14
2018-06-05T01:40:03.175Z,97.86
2018-06-05T01:41:03.406Z,97.95
2018-06-05T01:42:03.637Z,97.66
2018-06-05T01:43:03.870Z,97.95
2018-06-05T01:44:04.104Z,97.86
2018-06-05T01:45:04.339Z,97.95
2018-06-05T01:46:04.566Z,97.09
2018-06-05T01:47:04.798Z,97.28
2018-06-05T01:48:05.032Z,97.56
2018-06-05T01:49:05.261Z,97.28
2018-06-05T01:50:05.494Z,97.38
2018-06-05T01:51:05.725Z,96.89
2018-06-05T01:52:05.980Z,97.28
2018-06-05T01:53:06.198Z,98.14
2018-06-05T01:54:06.403Z,97.66
2018-06-05T01:55:06.637Z,97.86
2018-06-05T01:56:06.868Z,98.05
2018-06-05T01:57:07.103Z,97.38
2018-06-05T01:58:07.331Z,97.19
2018-06-05T01:59:07.564Z,97.38
2018-06-05T02:00:07.795Z,97.56
2018-06-05T02:01:08.029Z,97.86
2018-06-05T02:02:08.263Z,97.76
2018-06-05T02:03:08.491Z,98.14
2018-06-05T02:04:08.725Z,98.05
2018-06-05T02:05:08.961Z,98.53
2018-06-05T02:06:09.193Z,97.71
2018-06-05T02:07:09.426Z,98.05
2018-06-05T02:08:09.656Z,98.14
2018-06-05T02:09:09.888Z,98.43
2018-06-05T02:10:10.120Z,98.14
2018-06-05T02:11:10.351Z,97.61
2018-06-05T02:12:10.585Z,98.72
2018-06-05T02:13:10.816Z,98.38
2018-06-05T02:14:11.046Z,98.10
2018-06-05T02:15:11.281Z,98.48
2018-06-05T02:16:11.512Z,98.57
2018-06-05T02:17:11.745Z,98.48
2018-06-05T02:18:11.978Z,98.14
2018-06-05T02:19:12.211Z,97.95
2018-06-05T02:20:12.445Z,98.28
2018-06-05T02:21:12.674Z,98.00
2018-06-05T02:22:12.907Z,98.10
2018-06-05T02:23:13.137Z,98.14
2018-06-05T02:24:13.367Z,98.05
2018-06-05T02:25:13.604Z,97.86
2018-06-05T02:26:13.856Z,97.33
2018-06-05T02:27:14.084Z,98.28
2018-06-05T02:28:14.313Z,97.71
2018-06-05T02:29:14.548Z,97.14
2018-06-05T02:30:14.780Z,97.38
2018-06-05T02:31:15.012Z,97.33
2018-06-05T02:32:15.243Z,98.10
2018-06-05T02:33:15.474Z,98.00
2018-06-05T02:34:15.801Z,97.66
2018-06-05T02:35:15.938Z,98.19
2018-06-05T02:36:16.169Z,97.33
2018-06-05T02:37:16.401Z,97.76
2018-06-05T02:38:16.635Z,97.42
2018-06-05T02:39:16.866Z,97.81
2018-06-05T02:40:17.098Z,97.04
2018-06-05T02:41:17.329Z,97.04
2018-06-05T02:42:17.561Z,97.42
2018-06-05T02:43:17.797Z,97.33
2018-06-05T02:44:18.025Z,97.52
2018-06-05T02:45:18.261Z,97.14
2018-06-05T02:46:18.489Z,98.10
2018-06-05T02:47:18.722Z,98.19
2018-06-05T02:48:18.953Z,97.14
2018-06-05T02:49:19.185Z,98.10
2018-06-05T02:50:19.416Z,98.10
2018-06-05T02:51:19.650Z,97.61
2018-06-05T02:52:19.876Z,97.52
2018-06-05T02:53:20.111Z,97.42
2018-06-05T02:54:20.344Z,97.52
2018-06-05T02:55:20.573Z,97.81
2018-06-05T02:56:20.812Z,98.10
2018-06-05T02:57:21.039Z,98.10
2018-06-05T02:58:21.271Z,98.48
2018-06-05T02:59:21.503Z,98.28
2018-06-05T03:00:21.735Z,98.48
2018-06-05T03:01:21.966Z,99.15
2018-06-05T03:02:22.198Z,99.05
2018-06-05T03:03:22.433Z,98.86
2018-06-05T03:04:22.667Z,98.38
2018-06-05T03:05:22.899Z,98.57
2018-06-05T03:06:23.132Z,98.48
2018-06-05T03:07:23.365Z,98.00
2018-06-05T03:08:23.594Z,98.48
2018-06-05T03:09:23.824Z,98.48
2018-06-05T03:10:24.059Z,98.28
2018-06-05T03:11:24.290Z,98.10
2018-06-05T03:12:24.523Z,98.19
2018-06-05T03:13:24.755Z,98.10
2018-06-05T03:14:24.987Z,98.19
2018-06-05T03:15:25.219Z,97.71
2018-06-05T03:16:25.451Z,98.00
2018-06-05T03:17:25.683Z,97.61
2018-06-05T03:18:25.917Z,97.90
2018-06-05T03:19:26.148Z,97.61
2018-06-05T03:20:26.380Z,98.28
2018-06-05T03:21:26.612Z,97.90
2018-06-05T03:22:26.844Z,97.90
2018-06-05T03:23:27.076Z,98.00
2018-06-05T03:24:27.308Z,97.71
2018-06-05T03:25:27.537Z,97.90
2018-06-05T03:26:27.770Z,98.28
2018-06-05T03:27:28.004Z,97.90
2018-06-05T03:28:28.233Z,98.00
2018-06-05T03:29:28.464Z,97.61
2018-06-05T03:30:28.696Z,97.90
2018-06-05T03:31:28.927Z,97.90
2018-06-05T03:32:29.158Z,97.90
2018-06-05T03:33:29.391Z,98.48
2018-06-05T03:34:29.623Z,98.48
2018-06-05T03:35:29.855Z,98.48
2018-06-05T03:36:30.088Z,98.67
2018-06-05T03:37:30.318Z,99.01
2018-06-05T03:38:30.551Z,99.29
2018-06-05T03:39:30.783Z,99.39
2018-06-05T03:40:31.018Z,99.99
2018-06-05T03:41:31.247Z,99.48
2018-06-05T03:42:31.479Z,99.39
2018-06-05T03:43:31.712Z,99.39
2018-06-05T03:44:31.942Z,98.91
2018-06-05T03:45:32.174Z,99.34
2018-06-05T03:46:32.409Z,99.87
2018-06-05T03:47:32.638Z,99.68
2018-06-05T03:48:32.867Z,99.96
2018-06-05T03:49:33.101Z,99.58
2018-06-05T03:50:33.334Z,99.68
2018-06-05T03:51:33.566Z,99.68
2018-06-05T03:52:33.798Z,99.91
2018-06-05T03:53:34.026Z,99.63
2018-06-05T03:54:34.260Z,99.34
2018-06-05T03:55:34.494Z,99.44
2018-06-05T03:56:34.727Z,99.24
2018-06-05T03:57:34.954Z,99.24
2018-06-05T03:58:35.186Z,98.77
2018-06-05T03:59:35.419Z,99.44
2018-06-05T04:00:35.650Z,99.34
2018-06-05T04:01:35.881Z,99.99
2018-06-05T04:02:36.113Z,99.34
2018-06-05T04:03:36.346Z,98.86
2018-06-05T04:04:36.577Z,99.24
2018-06-05T04:05:36.808Z,99.05
2018-06-05T04:06:37.041Z,98.67
2018-06-05T04:07:37.272Z,98.96
2018-06-05T04:08:37.530Z,98.77
2018-06-05T04:09:37.737Z,99.24
2018-06-05T04:10:37.972Z,99.53
2018-06-05T04:11:38.202Z,98.77
2018-06-05T04:12:38.434Z,98.48
2018-06-05T04:13:38.669Z,98.77
2018-06-05T04:14:38.897Z,99.63
2018-06-05T04:15:39.132Z,99.05
2018-06-05T04:16:39.361Z,99.53
2018-06-05T04:17:39.594Z,98.86
2018-06-05T04:18:39.825Z,99.24
2018-06-05T04:19:40.058Z,99.15
2018-06-05T04:20:40.290Z,98.86
2018-06-05T04:21:40.522Z,98.19
2018-06-05T04:22:40.753Z,97.81
2018-06-05T04:23:40.983Z,97.71
2018-06-05T04:24:41.215Z,97.52
2018-06-05T04:25:41.444Z,98.00
2018-06-05T04:26:41.675Z,97.81
2018-06-05T04:27:41.907Z,98.00
2018-06-05T04:28:42.140Z,98.00
2018-06-05T04:29:42.370Z,97.81
2018-06-05T04:30:42.602Z,98.10
2018-06-05T04:31:42.833Z,98.14
2018-06-05T04:32:43.067Z,98.05
2018-06-05T04:33:43.300Z,97.47
2018-06-05T04:34:43.575Z,97.38
2018-06-05T04:35:43.806Z,96.99
2018-06-05T04:36:44.038Z,96.70
2018-06-05T04:37:44.269Z,96.80
2018-06-05T04:38:44.501Z,96.61
2018-06-05T04:39:44.733Z,96.42
2018-06-05T04:40:44.965Z,96.89
2018-06-05T04:41:45.197Z,96.61
2018-06-05T04:42:45.430Z,97.38
2018-06-05T04:43:45.661Z,97.38
2018-06-05T04:44:45.894Z,96.13
2018-06-05T04:45:46.133Z,96.32
2018-06-05T04:46:46.361Z,96.70
2018-06-05T04:47:46.602Z,96.22
2018-06-05T04:48:46.824Z,96.13
2018-06-05T04:49:47.055Z,95.75
2018-06-05T04:50:47.287Z,95.46
2018-06-05T04:51:47.519Z,95.65
2018-06-05T04:52:47.751Z,95.89
2018-06-05T04:53:47.984Z,95.12
2018-06-05T04:54:48.217Z,95.65
2018-06-05T04:55:48.448Z,95.65
2018-06-05T04:56:48.680Z,95.55
2018-06-05T04:57:48.912Z,95.21
2018-06-05T04:58:49.144Z,95.26
2018-06-05T04:59:49.375Z,95.17
2018-06-05T05:00:49.610Z,95.07
2018-06-05T05:01:49.839Z,95.65
2018-06-05T05:02:50.074Z,95.55
2018-06-05T05:03:50.302Z,95.55
2018-06-05T05:04:50.540Z,95.75
2018-06-05T05:05:50.769Z,96.13
2018-06-05T05:06:51.000Z,95.17
2018-06-05T05:07:51.232Z,95.65
2018-06-05T05:08:51.465Z,95.94
2018-06-05T05:09:51.699Z,96.03
2018-06-05T05:10:51.934Z,95.65
2018-06-05T05:11:52.163Z,95.55
2018-06-05T05:12:52.395Z,95.55
2018-06-05T05:13:52.627Z,95.84
2018-06-05T05:14:52.860Z,95.55
2018-06-05T05:15:53.091Z,95.55
2018-06-05T05:16:53.327Z,95.36
2018-06-05T05:17:53.556Z,95.26
2018-06-05T05:18:53.788Z,95.65
2018-06-05T05:19:54.021Z,94.83
2018-06-05T05:20:54.255Z,94.45
2018-06-05T05:21:54.487Z,94.45
2018-06-05T05:22:54.720Z,94.74
2018-06-05T05:23:54.950Z,94.93
2018-06-05T05:24:55.184Z,94.83
2018-06-05T05:25:55.416Z,94.64
2018-06-05T05:26:55.655Z,94.59
2018-06-05T05:27:55.880Z,94.31
2018-06-05T05:28:56.113Z,93.63
2018-06-05T05:29:56.345Z,94.79
2018-06-05T05:30:56.587Z,94.59
2018-06-05T05:31:56.809Z,94.54
2018-06-05T05:32:57.042Z,94.07
2018-06-05T05:33:57.275Z,93.97
2018-06-05T05:34:57.511Z,93.82
2018-06-05T05:35:57.782Z,93.87
2018-06-05T05:36:57.973Z,94.07
2018-06-05T05:37:58.206Z,93.68
2018-06-05T05:38:58.450Z,94.02
2018-06-05T05:39:58.706Z,93.87
2018-06-05T05:40:58.941Z,94.07
2018-06-05T05:41:59.174Z,93.87
2018-06-05T05:42:59.407Z,93.87
2018-06-05T05:43:59.641Z,93.87
2018-06-05T05:44:59.874Z,93.59
2018-06-05T05:46:00.106Z,93.59
2018-06-05T05:47:00.344Z,93.01
2018-06-05T05:48:00.575Z,92.82
2018-06-05T05:49:00.804Z,92.91
2018-06-05T05:50:01.035Z,92.82
2018-06-05T05:51:01.267Z,93.01
2018-06-05T05:52:01.499Z,93.01
2018-06-05T05:53:01.733Z,93.20
2018-06-05T05:54:01.966Z,92.72
2018-06-05T05:55:02.198Z,92.53
2018-06-05T05:56:02.435Z,92.43
2018-06-05T05:57:02.666Z,92.05
2018-06-05T05:58:02.899Z,91.96
2018-06-05T05:59:03.130Z,91.47
2018-06-05T06:00:03.363Z,91.66
2018-06-05T06:01:03.598Z,91.66
2018-06-05T06:02:03.827Z,91.96
2018-06-05T06:03:04.061Z,92.05
2018-06-05T06:04:04.293Z,91.47
2018-06-05T06:05:04.526Z,91.76
2018-06-05T06:06:04.759Z,91.96
2018-06-05T06:07:04.991Z,91.66
2018-06-05T06:08:05.226Z,92.43
2018-06-05T06:09:05.456Z,91.86
2018-06-05T06:10:05.691Z,91.09
2018-06-05T06:11:05.920Z,91.09
2018-06-05T06:12:06.152Z,91.19
2018-06-05T06:13:06.382Z,91.19
2018-06-05T06:14:06.613Z,91.09
2018-06-05T06:15:06.848Z,90.99
2018-06-05T06:16:07.084Z,91.19
2018-06-05T06:17:07.316Z,90.99
2018-06-05T06:18:07.550Z,90.37
2018-06-05T06:19:07.777Z,90.22
2018-06-05T06:20:08.013Z,90.37
2018-06-05T06:21:08.243Z,90.52
2018-06-05T06:22:08.474Z,90.80
2018-06-05T06:23:08.706Z,90.66
2018-06-05T06:24:08.938Z,90.99
2018-06-05T06:25:09.173Z,91.33
2018-06-05T06:26:09.404Z,91.42
2018-06-05T06:27:09.638Z,90.84
2018-06-05T06:28:09.872Z,90.94
2018-06-05T06:29:10.101Z,90.56
2018-06-05T06:30:10.336Z,90.37
2018-06-05T06:31:10.567Z,90.08
2018-06-05T06:32:10.801Z,90.08
2018-06-05T06:33:11.033Z,90.27
2018-06-05T06:34:11.265Z,89.79
2018-06-05T06:35:11.498Z,90.46
2018-06-05T06:36:11.731Z,89.79
2018-06-05T06:37:11.964Z,90.08
2018-06-05T06:38:12.201Z,89.50
2018-06-05T06:39:12.431Z,89.40
2018-06-05T06:40:12.663Z,90.56
2018-06-05T06:41:12.895Z,90.46
2018-06-05T06:42:13.128Z,89.89
2018-06-05T06:43:13.361Z,89.98
2018-06-05T06:44:13.591Z,89.64
2018-06-05T06:45:13.825Z,88.97
2018-06-05T06:46:14.060Z,88.49
2018-06-05T06:47:14.298Z,89.74
2018-06-05T06:48:14.526Z,89.36
2018-06-05T06:49:14.764Z,88.30
2018-06-05T06:50:14.990Z,88.01
2018-06-05T06:51:15.223Z,87.92
2018-06-05T06:52:15.456Z,87.92
2018-06-05T06:53:15.690Z,88.10
2018-06-05T06:54:15.930Z,87.82
2018-06-05T06:55:16.158Z,88.10
2018-06-05T06:56:16.389Z,88.30
2018-06-05T06:57:16.621Z,88.30
2018-06-05T06:58:16.854Z,88.20
2018-06-05T06:59:17.089Z,88.59
2018-06-05T07:00:17.321Z,88.78
2018-06-05T07:01:17.555Z,88.20
2018-06-05T07:02:17.784Z,87.92
2018-06-05T07:03:18.018Z,87.82
2018-06-05T07:04:18.265Z,88.10
2018-06-05T07:05:18.490Z,88.78
2018-06-05T07:06:18.733Z,88.68
2018-06-05T07:07:18.956Z,88.39
2018-06-05T07:08:19.187Z,88.30
2018-06-05T07:09:19.420Z,87.92
2018-06-05T07:10:19.656Z,88.10
2018-06-05T07:11:19.889Z,88.10
2018-06-05T07:12:20.200Z,88.49
2018-06-05T07:13:20.371Z,87.92
2018-06-05T07:14:20.593Z,88.78
2018-06-05T07:15:20.828Z,88.30
2018-06-05T07:16:21.061Z,88.78
2018-06-05T07:17:21.292Z,88.20
2018-06-05T07:18:21.554Z,88.30
2018-06-05T07:19:21.761Z,87.92
2018-06-05T07:20:21.984Z,87.82
2018-06-05T07:21:22.214Z,88.39
2018-06-05T07:22:22.450Z,88.97
2018-06-05T07:23:22.683Z,87.92
2018-06-05T07:24:22.912Z,87.82
2018-06-05T07:25:23.148Z,88.30
2018-06-05T07:26:23.379Z,87.82
2018-06-05T07:27:23.616Z,87.72
2018-06-05T07:28:23.846Z,86.76
2018-06-05T07:29:24.083Z,86.80
2018-06-05T07:30:24.327Z,86.28
2018-06-05T07:31:24.552Z,86.76
2018-06-05T07:32:24.781Z,87.05
2018-06-05T07:33:25.015Z,87.05
2018-06-05T07:34:25.247Z,85.99
2018-06-05T07:35:25.482Z,85.80
2018-06-05T07:36:25.714Z,86.66
2018-06-05T07:37:25.946Z,87.53
2018-06-05T07:38:26.180Z,86.66
2018-06-05T07:39:26.413Z,87.19
2018-06-05T07:40:26.647Z,86.90
2018-06-05T07:41:26.880Z,86.42
2018-06-05T07:42:27.115Z,86.80
2018-06-05T07:43:27.344Z,86.42
2018-06-05T07:44:27.663Z,85.99
2018-06-05T07:45:27.812Z,86.04
2018-06-05T07:46:28.046Z,86.90
2018-06-05T07:47:28.280Z,86.22
2018-06-05T07:48:28.513Z,85.55
2018-06-05T07:49:28.747Z,85.88
2018-06-05T07:50:28.981Z,86.32
2018-06-05T07:51:29.218Z,85.11
2018-06-05T07:52:29.448Z,85.31
2018-06-05T07:53:29.721Z,84.92
2018-06-05T07:54:29.914Z,85.31
2018-06-05T07:55:30.147Z,83.86
2018-06-05T07:56:30.381Z,84.06
2018-06-05T07:57:30.615Z,83.39
2018-06-05T07:58:30.849Z,83.39
2018-06-05T07:59:31.083Z,83.58
2018-06-05T08:00:31.316Z,82.32
2018-06-05T08:01:31.550Z,83.52
2018-06-05T08:02:31.783Z,83.09
2018-06-05T08:03:32.016Z,84.48
2018-06-05T08:04:32.252Z,83.00
2018-06-05T08:05:32.486Z,82.17
2018-06-05T08:06:32.723Z,82.56
2018-06-05T08:07:32.958Z,82.46
2018-06-05T08:08:33.185Z,82.65
2018-06-05T08:09:33.423Z,81.98
2018-06-05T08:10:33.659Z,81.88
2018-06-05T08:11:33.894Z,81.60
2018-06-05T08:12:34.126Z,82.37
2018-06-05T08:13:34.361Z,82.27
2018-06-05T08:14:34.591Z,81.88
2018-06-05T08:15:34.825Z,81.70
2018-06-05T08:16:35.062Z,81.79
2018-06-05T08:17:35.288Z,81.50
2018-06-05T08:18:35.528Z,82.56
2018-06-05T08:19:35.762Z,82.27
2018-06-05T08:20:35.994Z,81.60
2018-06-05T08:21:36.228Z,81.40
2018-06-05T08:22:36.462Z,81.21
2018-06-05T08:23:36.696Z,82.17
2018-06-05T08:24:36.936Z,81.12
2018-06-05T08:25:37.170Z,81.60
2018-06-05T08:26:37.400Z,81.60
2018-06-05T08:27:37.632Z,81.70
2018-06-05T08:28:37.865Z,82.08
2018-06-05T08:29:38.108Z,81.60
2018-06-05T08:30:38.340Z,81.73
2018-06-05T08:31:38.576Z,79.90
2018-06-05T08:32:38.807Z,80.68
2018-06-05T08:33:39.040Z,80.19
2018-06-05T08:34:39.279Z,79.36
2018-06-05T08:35:39.507Z,79.36
2018-06-05T08:36:39.741Z,78.88
2018-06-05T08:37:39.979Z,79.85
2018-06-05T08:38:40.209Z,79.02
2018-06-05T08:39:40.444Z,78.54
2018-06-05T08:40:40.678Z,78.54
2018-06-05T08:41:40.910Z,78.06
2018-06-05T08:42:41.156Z,77.96
2018-06-05T08:43:41.388Z,77.76
2018-06-05T08:44:41.621Z,77.48
2018-06-05T08:45:41.859Z,77.58
2018-06-05T08:46:42.090Z,77.86
2018-06-05T08:47:42.320Z,77.76
2018-06-05T08:48:42.555Z,76.80
2018-06-05T08:49:42.794Z,78.15
2018-06-05T08:50:43.029Z,78.83
2018-06-05T08:51:43.258Z,77.48
2018-06-05T08:52:43.490Z,77.28
2018-06-05T08:53:43.728Z,76.32
2018-06-05T08:54:43.979Z,76.61
2018-06-05T08:55:44.201Z,77.19
2018-06-05T08:56:44.556Z,77.19
2018-06-05T08:57:44.648Z,76.80
2018-06-05T08:58:44.874Z,77.48
2018-06-05T08:59:45.110Z,76.90
2018-06-05T09:00:45.346Z,75.97
2018-06-05T09:01:46.507Z,76.17
2018-06-05T09:02:46.131Z,76.51
2018-06-05T09:03:46.186Z,77.00
2018-06-05T09:04:46.312Z,76.71
2018-06-05T09:05:46.773Z,76.65
2018-06-05T09:06:46.809Z,76.17
2018-06-05T09:07:47.043Z,76.07
2018-06-05T09:08:47.278Z,75.49
2018-06-05T09:09:47.514Z,75.97
2018-06-05T09:10:47.781Z,75.40
2018-06-05T09:11:47.982Z,75.49
2018-06-05T09:12:48.233Z,75.01
2018-06-05T09:13:48.449Z,74.37
2018-06-05T09:14:48.683Z,74.91
2018-06-05T09:15:48.920Z,74.91
2018-06-05T09:16:49.155Z,74.85
2018-06-05T09:17:49.394Z,74.47
2018-06-05T09:18:49.626Z,74.76
2018-06-05T09:19:49.860Z,74.02
2018-06-05T09:20:50.098Z,72.77
2018-06-05T09:21:50.332Z,74.02
2018-06-05T09:22:50.564Z,73.44
2018-06-05T09:23:50.805Z,72.67
2018-06-05T09:24:51.046Z,72.61
2018-06-05T09:25:51.281Z,72.80
2018-06-05T09:26:51.514Z,71.84
2018-06-05T09:27:51.757Z,70.78
2018-06-05T09:28:51.996Z,71.84
2018-06-05T09:29:52.230Z,71.45
2018-06-05T09:30:52.460Z,70.72
2018-06-05T09:31:52.702Z,69.90
2018-06-05T09:32:52.936Z,70.10
2018-06-05T09:33:53.178Z,70.10
2018-06-05T09:34:53.405Z,70.10
2018-06-05T09:35:53.642Z,70.58
2018-06-05T09:36:53.879Z,71.16
2018-06-05T09:37:54.115Z,70.42
2018-06-05T09:38:54.347Z,70.42
2018-06-05T09:39:54.582Z,69.49
2018-06-05T09:40:54.820Z,69.78
2018-06-05T09:41:55.054Z,69.07
2018-06-05T09:42:55.290Z,68.98
2018-06-05T09:43:55.513Z,68.78
2018-06-05T09:44:55.765Z,68.88
2018-06-05T09:45:56.004Z,69.56
2018-06-05T09:46:56.249Z,70.20
2018-06-05T09:47:56.479Z,70.29
2018-06-05T09:48:56.714Z,70.00
2018-06-05T09:49:56.951Z,69.46
2018-06-05T09:50:57.195Z,70.10
2018-06-05T09:51:57.426Z,70.97
2018-06-05T09:52:57.659Z,69.81
2018-06-05T09:53:57.894Z,69.52
2018-06-05T09:54:58.134Z,70.20
2018-06-05T09:55:58.368Z,70.14
2018-06-05T09:56:58.604Z,70.68
2018-06-05T09:57:58.942Z,70.78
2018-06-05T09:58:59.080Z,69.56
2018-06-05T09:59:59.317Z,69.36
2018-06-05T10:00:59.553Z,69.84
2018-06-05T10:01:59.790Z,70.46
2018-06-05T10:03:00.029Z,68.88
2018-06-05T10:04:00.264Z,68.91
2018-06-05T10:05:00.504Z,68.43
2018-06-05T10:06:00.737Z,68.49
2018-06-05T10:07:00.975Z,68.78
2018-06-05T10:08:01.214Z,69.46
2018-06-05T10:09:01.451Z,69.36
2018-06-05T10:10:01.693Z,68.88
2018-06-05T10:11:01.932Z,69.46
2018-06-05T10:12:02.163Z,68.78
2018-06-05T10:13:02.398Z,69.84
2018-06-05T10:14:02.672Z,68.82
2018-06-05T10:15:02.871Z,69.30
2018-06-05T10:16:03.107Z,69.59
2018-06-05T10:17:03.350Z,67.91
2018-06-05T10:18:03.579Z,68.59
2018-06-05T10:19:03.816Z,69.40
2018-06-05T10:20:04.051Z,68.91
2018-06-05T10:21:04.294Z,68.62
2018-06-05T10:22:04.529Z,68.43
2018-06-05T10:23:04.767Z,69.65
2018-06-05T10:24:05.034Z,68.52
2018-06-05T10:25:05.268Z,67.85
2018-06-05T10:26:05.505Z,68.04
2018-06-05T10:27:05.742Z,68.24
2018-06-05T10:28:05.981Z,68.43
2018-06-05T10:29:06.218Z,68.24
2018-06-05T10:30:06.454Z,67.94
2018-06-05T10:31:06.693Z,68.62
2018-06-05T10:32:06.927Z,68.33
2018-06-05T10:33:07.163Z,67.94
2018-06-05T10:34:07.399Z,68.24
2018-06-05T10:35:07.632Z,68.52
2018-06-05T10:36:07.870Z,68.14
2018-06-05T10:37:08.124Z,68.91
2018-06-05T10:38:08.355Z,68.68
2018-06-05T10:39:08.593Z,68.01
2018-06-05T10:40:08.833Z,68.20
2018-06-05T10:41:09.064Z,68.40
2018-06-05T10:42:09.298Z,69.17
2018-06-05T10:43:09.535Z,68.40
2018-06-05T10:44:09.771Z,68.30
2018-06-05T10:45:10.008Z,70.42
2018-06-05T10:46:10.243Z,68.98
2018-06-05T10:47:10.481Z,70.14
2018-06-05T10:48:10.714Z,69.46
2018-06-05T10:49:10.950Z,67.46
2018-06-05T10:50:11.184Z,67.94
2018-06-05T10:51:11.423Z,67.56
2018-06-05T10:52:11.659Z,68.43
2018-06-05T10:53:11.892Z,67.75
2018-06-05T10:54:12.126Z,68.40
2018-06-05T10:55:12.363Z,68.30
2018-06-05T10:56:12.601Z,69.84
2018-06-05T10:57:12.837Z,69.84
2018-06-05T10:58:13.072Z,69.65
2018-06-05T10:59:13.310Z,69.56
2018-06-05T11:00:13.544Z,68.98
2018-06-05T11:01:13.783Z,68.40
2018-06-05T11:02:14.021Z,68.78
2018-06-05T11:03:14.253Z,69.26
2018-06-05T11:04:14.488Z,69.65
2018-06-05T11:05:14.723Z,67.66
2018-06-05T11:06:14.957Z,68.43
2018-06-05T11:07:15.191Z,68.24
2018-06-05T11:08:15.432Z,68.46
2018-06-05T11:09:15.670Z,67.79
2018-06-05T11:10:15.909Z,67.98
2018-06-05T11:11:16.139Z,66.78
2018-06-05T11:12:16.377Z,67.94
2018-06-05T11:13:16.611Z,68.33
2018-06-05T11:14:16.876Z,68.52
2018-06-05T11:15:17.109Z,67.98
2018-06-05T11:16:17.342Z,66.72
2018-06-05T11:17:17.575Z,66.63
2018-06-05T11:18:17.836Z,67.49
2018-06-05T11:19:18.046Z,66.82
2018-06-05T11:20:18.288Z,66.88
2018-06-05T11:21:18.533Z,67.75
2018-06-05T11:22:18.770Z,68.95
2018-06-05T11:23:19.007Z,68.66
2018-06-05T11:24:19.240Z,67.30
2018-06-05T11:25:19.478Z,66.63
2018-06-05T11:26:19.717Z,66.08
2018-06-05T11:27:19.951Z,66.66
2018-06-05T11:28:20.189Z,66.24
2018-06-05T11:29:20.428Z,65.98
2018-06-05T11:30:20.661Z,67.11
2018-06-05T11:31:20.898Z,66.33
2018-06-05T11:32:21.132Z,67.30
2018-06-05T11:33:21.367Z,68.21
2018-06-05T11:34:21.608Z,67.33
2018-06-05T11:35:21.839Z,65.59
2018-06-05T11:36:22.076Z,65.11
2018-06-05T11:37:22.314Z,65.40
2018-06-05T11:38:22.553Z,65.30
2018-06-05T11:39:22.788Z,66.47
2018-06-05T11:40:23.022Z,66.08
2018-06-05T11:41:23.263Z,65.50
2018-06-05T11:42:23.500Z,65.50
2018-06-05T11:43:23.734Z,65.59
2018-06-05T11:44:24.010Z,64.72
2018-06-05T11:45:24.214Z,65.20
2018-06-05T11:46:24.455Z,65.98
2018-06-05T11:47:24.689Z,66.08
2018-06-05T11:48:24.927Z,67.63
2018-06-05T11:49:25.163Z,65.88
2018-06-05T11:50:25.405Z,65.98
2018-06-05T11:51:25.636Z,66.47
2018-06-05T11:52:25.874Z,64.72
2018-06-05T11:53:26.112Z,64.43
2018-06-05T11:54:26.347Z,64.82
2018-06-05T11:55:26.582Z,66.56
2018-06-05T11:56:26.822Z,66.17
2018-06-05T11:57:27.058Z,66.37
2018-06-05T11:58:27.296Z,65.69
2018-06-05T11:59:27.528Z,66.37
2018-06-05T12:00:27.772Z,66.17
2018-06-05T12:01:28.008Z,66.08
2018-06-05T12:02:28.245Z,64.47
2018-06-05T12:03:28.480Z,65.05
2018-06-05T12:04:28.720Z,66.50
2018-06-05T12:05:28.955Z,66.11
2018-06-05T12:06:29.192Z,66.50
2018-06-05T12:07:29.428Z,65.53
2018-06-05T12:08:29.663Z,65.63
2018-06-05T12:09:29.901Z,65.20
2018-06-05T12:10:30.137Z,65.88
2018-06-05T12:11:30.380Z,65.92
2018-06-05T12:12:30.618Z,67.14
2018-06-05T12:13:30.851Z,66.17
2018-06-05T12:14:31.089Z,67.53
2018-06-05T12:15:31.325Z,66.37
2018-06-05T12:16:31.561Z,67.63
2018-06-05T12:17:31.796Z,67.33
2018-06-05T12:18:32.035Z,66.66
2018-06-05T12:19:32.273Z,66.47
2018-06-05T12:20:32.507Z,66.27
2018-06-05T12:21:32.748Z,65.63
2018-06-05T12:22:32.983Z,66.30
2018-06-05T12:23:33.220Z,66.40
2018-06-05T12:24:33.455Z,67.37
2018-06-05T12:25:33.742Z,67.37
2018-06-05T12:26:33.928Z,66.60
2018-06-05T12:27:34.162Z,65.34
2018-06-05T12:28:34.403Z,65.43
2018-06-05T12:29:34.638Z,65.53
2018-06-05T12:30:34.877Z,67.05
2018-06-05T12:31:35.113Z,67.82
2018-06-05T12:32:35.352Z,67.56
2018-06-05T12:33:35.589Z,66.75
2018-06-05T12:34:35.825Z,67.72
2018-06-05T12:35:36.059Z,67.53
2018-06-05T12:36:36.301Z,67.18
2018-06-05T12:37:36.535Z,67.43
2018-06-05T12:38:36.773Z,67.33
2018-06-05T12:39:37.009Z,67.43
2018-06-05T12:40:37.246Z,67.46
2018-06-05T12:41:37.500Z,67.76
2018-06-05T12:42:37.720Z,67.37
2018-06-05T12:43:37.957Z,68.37
2018-06-05T12:44:38.194Z,67.60
2018-06-05T12:45:38.432Z,66.20
2018-06-05T12:46:38.665Z,65.53
2018-06-05T12:47:38.901Z,66.50
2018-06-05T12:48:39.140Z,67.56
2018-06-05T12:49:39.378Z,66.60
2018-06-05T12:50:39.613Z,66.78
2018-06-05T12:51:39.855Z,65.95
2018-06-05T12:52:40.086Z,66.69
2018-06-05T12:53:40.324Z,67.46
2018-06-05T12:54:40.565Z,66.14
2018-06-05T12:55:40.795Z,66.24